sensor_id;sensor_type;location;lat;lon;timestamp;P1;durP1;ratioP1;P2;durP2;ratioP2
75048;SDS011;63803;53.120;8.764;2022-11-20T00:01:52;6.28;;;3.90;;
75048;SDS011;63803;53.120;8.764;2022-11-20T00:04:18;5.80;;;3.90;;
75048;SDS011;63803;53.120;8.764;2022-11-20T00:06:43;5.25;;;4.40;;
75048;SDS011;63803;53.120;8.764;2022-11-20T00:09:09;6.57;;;3.60;;
75048;SDS011;63803;53.120;8.764;2022-11-20T00:11:35;13.98;;;4.07;;
75048;SDS011;63803;53.120;8.764;2022-11-20T00:14:01;5.40;;;3.88;;
75048;SDS011;63803;53.120;8.764;2022-11-20T00:16:28;7.18;;;3.97;;
75048;SDS011;63803;53.120;8.764;2022-11-20T00:18:56;8.73;;;3.85;;
75048;SDS011;63803;53.120;8.764;2022-11-20T00:21:23;6.18;;;4.68;;
75048;SDS011;63803;53.120;8.764;2022-11-20T00:23:51;4.00;;;3.50;;
75048;SDS011;63803;53.120;8.764;2022-11-20T00:26:20;5.65;;;4.03;;
75048;SDS011;63803;53.120;8.764;2022-11-20T00:28:53;6.10;;;3.88;;
75048;SDS011;63803;53.120;8.764;2022-11-20T00:31:21;8.38;;;4.47;;
75048;SDS011;63803;53.120;8.764;2022-11-20T00:33:48;5.18;;;3.88;;
75048;SDS011;63803;53.120;8.764;2022-11-20T00:36:15;4.72;;;3.88;;
75048;SDS011;63803;53.120;8.764;2022-11-20T00:38:42;5.90;;;4.40;;
75048;SDS011;63803;53.120;8.764;2022-11-20T00:41:10;4.50;;;3.72;;
75048;SDS011;63803;53.120;8.764;2022-11-20T00:43:37;5.07;;;4.00;;
75048;SDS011;63803;53.120;8.764;2022-11-20T00:46:05;4.47;;;3.60;;
75048;SDS011;63803;53.120;8.764;2022-11-20T00:48:49;8.98;;;3.90;;
75048;SDS011;63803;53.120;8.764;2022-11-20T00:51:16;6.68;;;4.18;;
75048;SDS011;63803;53.120;8.764;2022-11-20T00:53:44;7.25;;;4.00;;
75048;SDS011;63803;53.120;8.764;2022-11-20T00:56:12;5.85;;;3.78;;
75048;SDS011;63803;53.120;8.764;2022-11-20T00:58:40;4.63;;;3.55;;
75048;SDS011;63803;53.120;8.764;2022-11-20T01:03:50;5.38;;;3.90;;
75048;SDS011;63803;53.120;8.764;2022-11-20T01:06:24;7.60;;;4.45;;
75048;SDS011;63803;53.120;8.764;2022-11-20T01:08:59;6.15;;;3.92;;
75048;SDS011;63803;53.120;8.764;2022-11-20T01:11:27;6.75;;;3.53;;
75048;SDS011;63803;53.120;8.764;2022-11-20T01:13:55;4.68;;;3.83;;
75048;SDS011;63803;53.120;8.764;2022-11-20T01:16:23;5.15;;;4.03;;
75048;SDS011;63803;53.120;8.764;2022-11-20T01:18:51;5.50;;;3.90;;
75048;SDS011;63803;53.120;8.764;2022-11-20T01:21:22;5.97;;;3.83;;
75048;SDS011;63803;53.120;8.764;2022-11-20T01:23:50;6.53;;;3.50;;
75048;SDS011;63803;53.120;8.764;2022-11-20T01:26:18;5.10;;;3.70;;
75048;SDS011;63803;53.120;8.764;2022-11-20T01:28:47;4.35;;;3.65;;
75048;SDS011;63803;53.120;8.764;2022-11-20T01:31:22;5.10;;;3.55;;
75048;SDS011;63803;53.120;8.764;2022-11-20T01:33:53;5.85;;;3.67;;
75048;SDS011;63803;53.120;8.764;2022-11-20T01:36:21;3.92;;;3.53;;
75048;SDS011;63803;53.120;8.764;2022-11-20T01:38:55;4.38;;;3.38;;
75048;SDS011;63803;53.120;8.764;2022-11-20T01:41:22;5.28;;;3.95;;
75048;SDS011;63803;53.120;8.764;2022-11-20T01:44:09;3.58;;;3.20;;
75048;SDS011;63803;53.120;8.764;2022-11-20T01:46:38;5.93;;;3.80;;
75048;SDS011;63803;53.120;8.764;2022-11-20T01:49:08;3.92;;;3.13;;
75048;SDS011;63803;53.120;8.764;2022-11-20T01:51:45;5.85;;;3.95;;
75048;SDS011;63803;53.120;8.764;2022-11-20T01:54:30;8.25;;;3.88;;
75048;SDS011;63803;53.120;8.764;2022-11-20T01:57:01;5.82;;;3.72;;
75048;SDS011;63803;53.120;8.764;2022-11-20T01:59:29;5.57;;;3.63;;
75048;SDS011;63803;53.120;8.764;2022-11-20T02:01:55;4.82;;;3.47;;
75048;SDS011;63803;53.120;8.764;2022-11-20T02:04:22;4.15;;;3.45;;
75048;SDS011;63803;53.120;8.764;2022-11-20T02:06:51;4.35;;;3.50;;
75048;SDS011;63803;53.120;8.764;2022-11-20T02:09:23;5.20;;;3.88;;
75048;SDS011;63803;53.120;8.764;2022-11-20T02:11:49;5.68;;;3.58;;
75048;SDS011;63803;53.120;8.764;2022-11-20T02:14:15;5.82;;;3.17;;
75048;SDS011;63803;53.120;8.764;2022-11-20T02:16:43;6.07;;;3.75;;
75048;SDS011;63803;53.120;8.764;2022-11-20T02:22:10;5.60;;;3.88;;
75048;SDS011;63803;53.120;8.764;2022-11-20T02:24:39;4.30;;;3.40;;
75048;SDS011;63803;53.120;8.764;2022-11-20T02:27:08;4.78;;;3.47;;
75048;SDS011;63803;53.120;8.764;2022-11-20T02:29:52;4.53;;;3.53;;
75048;SDS011;63803;53.120;8.764;2022-11-20T02:32:27;4.55;;;3.35;;
75048;SDS011;63803;53.120;8.764;2022-11-20T02:34:55;4.05;;;3.45;;
75048;SDS011;63803;53.120;8.764;2022-11-20T02:37:22;4.60;;;3.53;;
75048;SDS011;63803;53.120;8.764;2022-11-20T02:42:18;6.72;;;3.40;;
75048;SDS011;63803;53.120;8.764;2022-11-20T02:44:44;4.53;;;3.38;;
75048;SDS011;63803;53.120;8.764;2022-11-20T02:47:10;3.65;;;3.03;;
75048;SDS011;63803;53.120;8.764;2022-11-20T02:49:36;6.10;;;3.92;;
75048;SDS011;63803;53.120;8.764;2022-11-20T02:52:02;5.68;;;3.47;;
75048;SDS011;63803;53.120;8.764;2022-11-20T02:54:28;4.97;;;3.60;;
75048;SDS011;63803;53.120;8.764;2022-11-20T02:56:54;4.40;;;3.63;;
75048;SDS011;63803;53.120;8.764;2022-11-20T02:59:20;5.55;;;3.42;;
75048;SDS011;63803;53.120;8.764;2022-11-20T03:01:46;6.63;;;3.63;;
75048;SDS011;63803;53.120;8.764;2022-11-20T03:04:12;5.78;;;3.65;;
75048;SDS011;63803;53.120;8.764;2022-11-20T03:06:38;3.40;;;3.10;;
75048;SDS011;63803;53.120;8.764;2022-11-20T03:09:04;5.68;;;3.35;;
75048;SDS011;63803;53.120;8.764;2022-11-20T03:11:29;3.25;;;2.95;;
75048;SDS011;63803;53.120;8.764;2022-11-20T03:13:55;4.18;;;3.72;;
75048;SDS011;63803;53.120;8.764;2022-11-20T03:16:22;3.92;;;3.53;;
75048;SDS011;63803;53.120;8.764;2022-11-20T03:18:49;4.20;;;3.60;;
75048;SDS011;63803;53.120;8.764;2022-11-20T03:21:17;4.30;;;3.40;;
75048;SDS011;63803;53.120;8.764;2022-11-20T03:23:43;4.78;;;3.38;;
75048;SDS011;63803;53.120;8.764;2022-11-20T03:26:16;6.30;;;3.40;;
75048;SDS011;63803;53.120;8.764;2022-11-20T03:28:48;3.70;;;3.15;;
75048;SDS011;63803;53.120;8.764;2022-11-20T03:31:15;3.75;;;2.95;;
75048;SDS011;63803;53.120;8.764;2022-11-20T03:33:43;3.97;;;3.30;;
75048;SDS011;63803;53.120;8.764;2022-11-20T03:36:10;4.45;;;3.40;;
75048;SDS011;63803;53.120;8.764;2022-11-20T03:38:38;5.13;;;3.10;;
75048;SDS011;63803;53.120;8.764;2022-11-20T03:41:07;3.42;;;2.97;;
75048;SDS011;63803;53.120;8.764;2022-11-20T03:43:35;3.50;;;3.10;;
75048;SDS011;63803;53.120;8.764;2022-11-20T03:46:02;4.32;;;3.28;;
75048;SDS011;63803;53.120;8.764;2022-11-20T03:48:29;3.60;;;2.97;;
75048;SDS011;63803;53.120;8.764;2022-11-20T03:51:08;6.82;;;3.30;;
75048;SDS011;63803;53.120;8.764;2022-11-20T03:53:36;5.00;;;3.42;;
75048;SDS011;63803;53.120;8.764;2022-11-20T03:56:02;4.90;;;3.13;;
75048;SDS011;63803;53.120;8.764;2022-11-20T03:58:28;4.47;;;2.58;;
75048;SDS011;63803;53.120;8.764;2022-11-20T04:00:54;4.18;;;3.15;;
75048;SDS011;63803;53.120;8.764;2022-11-20T04:03:20;4.60;;;3.25;;
75048;SDS011;63803;53.120;8.764;2022-11-20T04:05:46;5.50;;;3.33;;
75048;SDS011;63803;53.120;8.764;2022-11-20T04:08:12;3.70;;;3.10;;
75048;SDS011;63803;53.120;8.764;2022-11-20T04:10:37;3.78;;;3.08;;
75048;SDS011;63803;53.120;8.764;2022-11-20T04:13:03;5.80;;;3.20;;
75048;SDS011;63803;53.120;8.764;2022-11-20T04:15:29;4.90;;;3.33;;
75048;SDS011;63803;53.120;8.764;2022-11-20T04:17:55;5.60;;;2.78;;
75048;SDS011;63803;53.120;8.764;2022-11-20T04:20:21;3.67;;;3.10;;
75048;SDS011;63803;53.120;8.764;2022-11-20T04:22:47;4.43;;;3.28;;
75048;SDS011;63803;53.120;8.764;2022-11-20T04:25:13;3.00;;;2.67;;
75048;SDS011;63803;53.120;8.764;2022-11-20T04:27:39;6.38;;;3.33;;
75048;SDS011;63803;53.120;8.764;2022-11-20T04:30:05;6.32;;;3.17;;
75048;SDS011;63803;53.120;8.764;2022-11-20T04:32:31;3.90;;;3.05;;
75048;SDS011;63803;53.120;8.764;2022-11-20T04:34:57;4.35;;;3.20;;
75048;SDS011;63803;53.120;8.764;2022-11-20T04:37:23;3.38;;;2.55;;
75048;SDS011;63803;53.120;8.764;2022-11-20T04:39:49;6.10;;;3.10;;
75048;SDS011;63803;53.120;8.764;2022-11-20T04:42:15;3.47;;;2.90;;
75048;SDS011;63803;53.120;8.764;2022-11-20T04:44:56;6.38;;;3.10;;
75048;SDS011;63803;53.120;8.764;2022-11-20T04:47:23;3.88;;;2.85;;
75048;SDS011;63803;53.120;8.764;2022-11-20T04:49:49;4.60;;;3.10;;
75048;SDS011;63803;53.120;8.764;2022-11-20T04:52:15;4.22;;;2.78;;
75048;SDS011;63803;53.120;8.764;2022-11-20T04:54:41;3.20;;;2.72;;
75048;SDS011;63803;53.120;8.764;2022-11-20T04:57:07;2.72;;;2.45;;
75048;SDS011;63803;53.120;8.764;2022-11-20T04:59:35;4.22;;;2.80;;
75048;SDS011;63803;53.120;8.764;2022-11-20T05:02:01;3.13;;;2.70;;
75048;SDS011;63803;53.120;8.764;2022-11-20T05:04:27;3.30;;;2.65;;
75048;SDS011;63803;53.120;8.764;2022-11-20T05:06:53;4.40;;;2.80;;
75048;SDS011;63803;53.120;8.764;2022-11-20T05:09:19;3.78;;;2.67;;
75048;SDS011;63803;53.120;8.764;2022-11-20T05:11:45;5.05;;;2.90;;
75048;SDS011;63803;53.120;8.764;2022-11-20T05:14:11;4.85;;;2.83;;
75048;SDS011;63803;53.120;8.764;2022-11-20T05:16:37;3.35;;;2.67;;
75048;SDS011;63803;53.120;8.764;2022-11-20T05:19:03;2.95;;;2.63;;
75048;SDS011;63803;53.120;8.764;2022-11-20T05:21:30;5.20;;;2.85;;
75048;SDS011;63803;53.120;8.764;2022-11-20T05:23:57;3.78;;;2.83;;
75048;SDS011;63803;53.120;8.764;2022-11-20T05:26:23;2.80;;;2.60;;
75048;SDS011;63803;53.120;8.764;2022-11-20T05:28:49;6.15;;;3.00;;
75048;SDS011;63803;53.120;8.764;2022-11-20T05:31:19;3.78;;;2.70;;
75048;SDS011;63803;53.120;8.764;2022-11-20T05:33:49;3.35;;;2.58;;
75048;SDS011;63803;53.120;8.764;2022-11-20T05:36:16;3.75;;;2.78;;
75048;SDS011;63803;53.120;8.764;2022-11-20T05:38:42;3.38;;;2.33;;
75048;SDS011;63803;53.120;8.764;2022-11-20T05:41:10;3.70;;;2.47;;
75048;SDS011;63803;53.120;8.764;2022-11-20T05:43:37;3.55;;;2.40;;
75048;SDS011;63803;53.120;8.764;2022-11-20T05:46:04;5.13;;;2.45;;
75048;SDS011;63803;53.120;8.764;2022-11-20T05:48:31;3.40;;;2.67;;
75048;SDS011;63803;53.120;8.764;2022-11-20T05:50:58;3.75;;;2.78;;
75048;SDS011;63803;53.120;8.764;2022-11-20T05:53:25;4.18;;;2.58;;
75048;SDS011;63803;53.120;8.764;2022-11-20T05:55:58;4.78;;;2.90;;
75048;SDS011;63803;53.120;8.764;2022-11-20T05:58:25;4.32;;;2.60;;
75048;SDS011;63803;53.120;8.764;2022-11-20T06:00:51;2.60;;;2.03;;
75048;SDS011;63803;53.120;8.764;2022-11-20T06:03:17;3.75;;;2.47;;
75048;SDS011;63803;53.120;8.764;2022-11-20T06:05:43;4.03;;;2.83;;
75048;SDS011;63803;53.120;8.764;2022-11-20T06:08:09;3.63;;;2.72;;
75048;SDS011;63803;53.120;8.764;2022-11-20T06:10:35;4.57;;;2.20;;
75048;SDS011;63803;53.120;8.764;2022-11-20T06:13:01;4.20;;;2.42;;
75048;SDS011;63803;53.120;8.764;2022-11-20T06:15:27;2.72;;;2.47;;
75048;SDS011;63803;53.120;8.764;2022-11-20T06:17:53;3.55;;;2.50;;
75048;SDS011;63803;53.120;8.764;2022-11-20T06:20:20;2.97;;;2.30;;
75048;SDS011;63803;53.120;8.764;2022-11-20T06:22:46;3.50;;;2.40;;
75048;SDS011;63803;53.120;8.764;2022-11-20T06:25:12;2.92;;;2.53;;
75048;SDS011;63803;53.120;8.764;2022-11-20T06:27:39;2.78;;;2.35;;
75048;SDS011;63803;53.120;8.764;2022-11-20T06:30:05;3.25;;;2.50;;
75048;SDS011;63803;53.120;8.764;2022-11-20T06:32:32;3.72;;;2.53;;
75048;SDS011;63803;53.120;8.764;2022-11-20T06:34:58;3.15;;;2.45;;
75048;SDS011;63803;53.120;8.764;2022-11-20T06:37:24;2.70;;;2.40;;
75048;SDS011;63803;53.120;8.764;2022-11-20T06:39:50;3.95;;;2.40;;
75048;SDS011;63803;53.120;8.764;2022-11-20T06:42:16;2.08;;;1.92;;
75048;SDS011;63803;53.120;8.764;2022-11-20T06:44:42;2.95;;;2.50;;
75048;SDS011;63803;53.120;8.764;2022-11-20T06:47:08;2.30;;;2.05;;
75048;SDS011;63803;53.120;8.764;2022-11-20T06:49:34;3.40;;;2.72;;
75048;SDS011;63803;53.120;8.764;2022-11-20T06:51:59;4.90;;;2.60;;
75048;SDS011;63803;53.120;8.764;2022-11-20T06:54:25;4.55;;;2.70;;
75048;SDS011;63803;53.120;8.764;2022-11-20T06:56:51;3.88;;;2.58;;
75048;SDS011;63803;53.120;8.764;2022-11-20T06:59:17;2.83;;;2.30;;
75048;SDS011;63803;53.120;8.764;2022-11-20T07:01:43;3.70;;;2.60;;
75048;SDS011;63803;53.120;8.764;2022-11-20T07:04:09;2.97;;;2.50;;
75048;SDS011;63803;53.120;8.764;2022-11-20T07:06:35;2.88;;;2.50;;
75048;SDS011;63803;53.120;8.764;2022-11-20T07:09:01;2.35;;;2.13;;
75048;SDS011;63803;53.120;8.764;2022-11-20T07:11:27;3.35;;;2.28;;
75048;SDS011;63803;53.120;8.764;2022-11-20T07:13:53;4.82;;;2.42;;
75048;SDS011;63803;53.120;8.764;2022-11-20T07:16:19;3.88;;;2.70;;
75048;SDS011;63803;53.120;8.764;2022-11-20T07:18:45;3.33;;;2.47;;
75048;SDS011;63803;53.120;8.764;2022-11-20T07:21:11;5.68;;;2.50;;
75048;SDS011;63803;53.120;8.764;2022-11-20T07:23:37;3.42;;;2.50;;
75048;SDS011;63803;53.120;8.764;2022-11-20T07:26:06;3.15;;;2.30;;
75048;SDS011;63803;53.120;8.764;2022-11-20T07:28:34;4.25;;;2.35;;
75048;SDS011;63803;53.120;8.764;2022-11-20T07:31:00;2.80;;;2.42;;
75048;SDS011;63803;53.120;8.764;2022-11-20T07:33:27;4.15;;;2.38;;
75048;SDS011;63803;53.120;8.764;2022-11-20T07:35:53;2.53;;;2.33;;
75048;SDS011;63803;53.120;8.764;2022-11-20T07:38:19;2.80;;;2.50;;
75048;SDS011;63803;53.120;8.764;2022-11-20T07:40:45;3.40;;;2.47;;
75048;SDS011;63803;53.120;8.764;2022-11-20T07:43:11;2.83;;;2.50;;
75048;SDS011;63803;53.120;8.764;2022-11-20T07:45:37;4.13;;;2.35;;
75048;SDS011;63803;53.120;8.764;2022-11-20T07:48:03;2.95;;;2.50;;
75048;SDS011;63803;53.120;8.764;2022-11-20T07:50:29;3.50;;;2.30;;
75048;SDS011;63803;53.120;8.764;2022-11-20T07:53:05;2.95;;;2.17;;
75048;SDS011;63803;53.120;8.764;2022-11-20T07:55:31;3.15;;;2.53;;
75048;SDS011;63803;53.120;8.764;2022-11-20T07:57:57;2.35;;;2.15;;
75048;SDS011;63803;53.120;8.764;2022-11-20T08:00:24;3.13;;;2.33;;
75048;SDS011;63803;53.120;8.764;2022-11-20T08:02:50;2.72;;;2.00;;
75048;SDS011;63803;53.120;8.764;2022-11-20T08:05:16;3.92;;;2.38;;
75048;SDS011;63803;53.120;8.764;2022-11-20T08:07:43;3.47;;;2.28;;
75048;SDS011;63803;53.120;8.764;2022-11-20T08:10:10;3.35;;;2.55;;
75048;SDS011;63803;53.120;8.764;2022-11-20T08:12:48;4.82;;;2.50;;
75048;SDS011;63803;53.120;8.764;2022-11-20T08:15:34;3.50;;;2.40;;
75048;SDS011;63803;53.120;8.764;2022-11-20T08:18:01;2.50;;;2.20;;
75048;SDS011;63803;53.120;8.764;2022-11-20T08:20:34;2.83;;;2.10;;
75048;SDS011;63803;53.120;8.764;2022-11-20T08:23:01;2.90;;;2.17;;
75048;SDS011;63803;53.120;8.764;2022-11-20T08:25:28;3.33;;;2.60;;
75048;SDS011;63803;53.120;8.764;2022-11-20T08:27:58;4.00;;;2.65;;
75048;SDS011;63803;53.120;8.764;2022-11-20T08:30:25;3.28;;;2.35;;
75048;SDS011;63803;53.120;8.764;2022-11-20T08:32:51;2.42;;;2.22;;
75048;SDS011;63803;53.120;8.764;2022-11-20T08:35:17;4.72;;;2.45;;
75048;SDS011;63803;53.120;8.764;2022-11-20T08:37:45;7.93;;;2.63;;
75048;SDS011;63803;53.120;8.764;2022-11-20T08:40:12;3.78;;;2.70;;
75048;SDS011;63803;53.120;8.764;2022-11-20T08:42:45;7.25;;;2.25;;
75048;SDS011;63803;53.120;8.764;2022-11-20T08:45:15;7.65;;;3.17;;
75048;SDS011;63803;53.120;8.764;2022-11-20T08:47:42;4.10;;;2.30;;
75048;SDS011;63803;53.120;8.764;2022-11-20T08:50:09;10.88;;;2.40;;
75048;SDS011;63803;53.120;8.764;2022-11-20T08:52:35;15.88;;;2.70;;
75048;SDS011;63803;53.120;8.764;2022-11-20T08:55:01;2.28;;;2.08;;
75048;SDS011;63803;53.120;8.764;2022-11-20T08:57:31;8.18;;;2.60;;
75048;SDS011;63803;53.120;8.764;2022-11-20T08:59:58;4.40;;;2.55;;
75048;SDS011;63803;53.120;8.764;2022-11-20T09:02:24;6.97;;;2.70;;
75048;SDS011;63803;53.120;8.764;2022-11-20T09:04:50;3.70;;;2.42;;
75048;SDS011;63803;53.120;8.764;2022-11-20T09:07:16;6.55;;;2.30;;
75048;SDS011;63803;53.120;8.764;2022-11-20T09:09:42;2.90;;;2.40;;
75048;SDS011;63803;53.120;8.764;2022-11-20T09:12:08;5.55;;;2.35;;
75048;SDS011;63803;53.120;8.764;2022-11-20T09:14:34;4.60;;;2.13;;
75048;SDS011;63803;53.120;8.764;2022-11-20T09:17:00;4.63;;;2.17;;
75048;SDS011;63803;53.120;8.764;2022-11-20T09:19:26;2.63;;;2.38;;
75048;SDS011;63803;53.120;8.764;2022-11-20T09:21:52;3.47;;;2.58;;
75048;SDS011;63803;53.120;8.764;2022-11-20T09:24:19;4.43;;;2.67;;
75048;SDS011;63803;53.120;8.764;2022-11-20T09:26:46;3.90;;;2.50;;
75048;SDS011;63803;53.120;8.764;2022-11-20T09:29:12;3.85;;;2.30;;
75048;SDS011;63803;53.120;8.764;2022-11-20T09:31:38;4.70;;;2.20;;
75048;SDS011;63803;53.120;8.764;2022-11-20T09:34:04;3.67;;;2.53;;
75048;SDS011;63803;53.120;8.764;2022-11-20T09:36:30;2.90;;;2.10;;
75048;SDS011;63803;53.120;8.764;2022-11-20T09:38:56;3.00;;;2.40;;
75048;SDS011;63803;53.120;8.764;2022-11-20T09:44:18;3.13;;;2.38;;
75048;SDS011;63803;53.120;8.764;2022-11-20T09:49:43;2.90;;;2.58;;
75048;SDS011;63803;53.120;8.764;2022-11-20T09:55:26;3.08;;;2.42;;
75048;SDS011;63803;53.120;8.764;2022-11-20T09:57:55;4.57;;;2.38;;
75048;SDS011;63803;53.120;8.764;2022-11-20T10:00:24;4.20;;;2.35;;
75048;SDS011;63803;53.120;8.764;2022-11-20T10:02:53;3.45;;;2.50;;
75048;SDS011;63803;53.120;8.764;2022-11-20T10:05:27;3.30;;;1.98;;
75048;SDS011;63803;53.120;8.764;2022-11-20T10:13:35;4.10;;;2.78;;
75048;SDS011;63803;53.120;8.764;2022-11-20T10:19:01;2.58;;;2.35;;
75048;SDS011;63803;53.120;8.764;2022-11-20T10:21:44;6.43;;;2.43;;
75048;SDS011;63803;53.120;8.764;2022-11-20T10:30:11;3.43;;;2.27;;
75048;SDS011;63803;53.120;8.764;2022-11-20T10:32:40;2.80;;;2.38;;
75048;SDS011;63803;53.120;8.764;2022-11-20T10:35:25;2.72;;;2.20;;
75048;SDS011;63803;53.120;8.764;2022-11-20T10:37:56;7.43;;;2.35;;
75048;SDS011;63803;53.120;8.764;2022-11-20T10:40:38;5.47;;;2.60;;
75048;SDS011;63803;53.120;8.764;2022-11-20T10:43:16;17.95;;;4.22;;
75048;SDS011;63803;53.120;8.764;2022-11-20T10:46:13;16.80;;;4.97;;
75048;SDS011;63803;53.120;8.764;2022-11-20T10:48:47;18.83;;;4.75;;
75048;SDS011;63803;53.120;8.764;2022-11-20T10:56:35;16.52;;;3.40;;
75048;SDS011;63803;53.120;8.764;2022-11-20T11:04:28;9.50;;;3.53;;
75048;SDS011;63803;53.120;8.764;2022-11-20T11:07:10;6.88;;;3.50;;
75048;SDS011;63803;53.120;8.764;2022-11-20T11:10:18;8.73;;;3.33;;
75048;SDS011;63803;53.120;8.764;2022-11-20T11:12:46;6.53;;;2.67;;
75048;SDS011;63803;53.120;8.764;2022-11-20T11:15:26;8.85;;;3.25;;
75048;SDS011;63803;53.120;8.764;2022-11-20T11:18:04;13.07;;;3.63;;
75048;SDS011;63803;53.120;8.764;2022-11-20T11:20:30;7.93;;;2.85;;
75048;SDS011;63803;53.120;8.764;2022-11-20T11:22:58;9.98;;;2.80;;
75048;SDS011;63803;53.120;8.764;2022-11-20T11:25:26;14.50;;;2.80;;
75048;SDS011;63803;53.120;8.764;2022-11-20T11:27:53;7.85;;;2.90;;
75048;SDS011;63803;53.120;8.764;2022-11-20T11:30:26;4.85;;;2.90;;
75048;SDS011;63803;53.120;8.764;2022-11-20T11:33:05;9.27;;;3.40;;
75048;SDS011;63803;53.120;8.764;2022-11-20T11:35:38;6.85;;;3.35;;
75048;SDS011;63803;53.120;8.764;2022-11-20T11:38:22;6.50;;;2.95;;
75048;SDS011;63803;53.120;8.764;2022-11-20T11:40:55;5.28;;;2.88;;
75048;SDS011;63803;53.120;8.764;2022-11-20T11:43:24;5.40;;;2.90;;
75048;SDS011;63803;53.120;8.764;2022-11-20T11:48:58;6.32;;;2.65;;
75048;SDS011;63803;53.120;8.764;2022-11-20T11:54:16;5.88;;;3.10;;
75048;SDS011;63803;53.120;8.764;2022-11-20T11:56:50;5.63;;;3.13;;
75048;SDS011;63803;53.120;8.764;2022-11-20T11:59:28;4.60;;;2.70;;
75048;SDS011;63803;53.120;8.764;2022-11-20T12:02:01;3.60;;;2.30;;
75048;SDS011;63803;53.120;8.764;2022-11-20T12:04:48;4.45;;;2.90;;
75048;SDS011;63803;53.120;8.764;2022-11-20T12:10:05;38.80;;;16.90;;
75048;SDS011;63803;53.120;8.764;2022-11-20T12:12:41;404.98;;;180.05;;
75048;SDS011;63803;53.120;8.764;2022-11-20T12:15:10;190.18;;;78.68;;
75048;SDS011;63803;53.120;8.764;2022-11-20T12:17:41;393.48;;;166.00;;
75048;SDS011;63803;53.120;8.764;2022-11-20T12:20:13;375.75;;;160.32;;
75048;SDS011;63803;53.120;8.764;2022-11-20T12:22:49;383.55;;;168.57;;
75048;SDS011;63803;53.120;8.764;2022-11-20T12:25:35;407.05;;;176.45;;
75048;SDS011;63803;53.120;8.764;2022-11-20T12:30:50;351.92;;;150.10;;
75048;SDS011;63803;53.120;8.764;2022-11-20T12:33:47;381.08;;;159.63;;
75048;SDS011;63803;53.120;8.764;2022-11-20T12:36:19;383.83;;;163.32;;
75048;SDS011;63803;53.120;8.764;2022-11-20T12:53:59;329.42;;;133.63;;
75048;SDS011;63803;53.120;8.764;2022-11-20T13:02:27;310.02;;;129.80;;
75048;SDS011;63803;53.120;8.764;2022-11-20T13:07:43;310.05;;;129.30;;
75048;SDS011;63803;53.120;8.764;2022-11-20T13:13:13;263.88;;;110.85;;
75048;SDS011;63803;53.120;8.764;2022-11-20T13:15:57;261.90;;;110.30;;
75048;SDS011;63803;53.120;8.764;2022-11-20T13:21:23;248.60;;;104.32;;
75048;SDS011;63803;53.120;8.764;2022-11-20T13:24:05;244.32;;;102.40;;
75048;SDS011;63803;53.120;8.764;2022-11-20T13:26:43;253.20;;;103.18;;
75048;SDS011;63803;53.120;8.764;2022-11-20T13:29:11;243.45;;;103.60;;
75048;SDS011;63803;53.120;8.764;2022-11-20T13:31:43;234.32;;;97.43;;
75048;SDS011;63803;53.120;8.764;2022-11-20T13:34:22;230.85;;;96.03;;
75048;SDS011;63803;53.120;8.764;2022-11-20T13:36:52;223.40;;;94.53;;
75048;SDS011;63803;53.120;8.764;2022-11-20T13:39:27;218.18;;;92.18;;
75048;SDS011;63803;53.120;8.764;2022-11-20T13:44:50;217.98;;;91.65;;
75048;SDS011;63803;53.120;8.764;2022-11-20T13:47:23;203.73;;;88.45;;
75048;SDS011;63803;53.120;8.764;2022-11-20T13:49:51;201.02;;;84.63;;
75048;SDS011;63803;53.120;8.764;2022-11-20T13:58:20;175.75;;;74.22;;
75048;SDS011;63803;53.120;8.764;2022-11-20T14:01:08;171.45;;;73.75;;
75048;SDS011;63803;53.120;8.764;2022-11-20T14:03:39;167.20;;;70.53;;
75048;SDS011;63803;53.120;8.764;2022-11-20T14:06:10;165.18;;;70.43;;
75048;SDS011;63803;53.120;8.764;2022-11-20T14:08:46;157.95;;;68.07;;
75048;SDS011;63803;53.120;8.764;2022-11-20T14:11:17;155.38;;;67.45;;
75048;SDS011;63803;53.120;8.764;2022-11-20T14:13:52;164.60;;;67.13;;
75048;SDS011;63803;53.120;8.764;2022-11-20T14:16:25;150.83;;;65.23;;
75048;SDS011;63803;53.120;8.764;2022-11-20T14:18:52;154.55;;;66.03;;
75048;SDS011;63803;53.120;8.764;2022-11-20T14:21:23;153.00;;;63.88;;
75048;SDS011;63803;53.120;8.764;2022-11-20T14:24:09;142.30;;;61.90;;
75048;SDS011;63803;53.120;8.764;2022-11-20T14:26:37;158.30;;;63.42;;
75048;SDS011;63803;53.120;8.764;2022-11-20T14:31:44;136.55;;;58.58;;
75048;SDS011;63803;53.120;8.764;2022-11-20T14:34:15;141.15;;;58.42;;
75048;SDS011;63803;53.120;8.764;2022-11-20T14:36:45;128.77;;;57.03;;
75048;SDS011;63803;53.120;8.764;2022-11-20T14:39:12;124.78;;;56.35;;
75048;SDS011;63803;53.120;8.764;2022-11-20T14:41:52;123.50;;;55.42;;
75048;SDS011;63803;53.120;8.764;2022-11-20T14:44:23;125.10;;;55.65;;
75048;SDS011;63803;53.120;8.764;2022-11-20T14:47:00;116.93;;;52.53;;
75048;SDS011;63803;53.120;8.764;2022-11-20T14:49:29;115.60;;;51.30;;
75048;SDS011;63803;53.120;8.764;2022-11-20T14:52:00;118.10;;;51.83;;
75048;SDS011;63803;53.120;8.764;2022-11-20T14:54:48;112.75;;;48.58;;
75048;SDS011;63803;53.120;8.764;2022-11-20T15:05:09;114.28;;;46.55;;
75048;SDS011;63803;53.120;8.764;2022-11-20T15:07:37;116.05;;;45.78;;
75048;SDS011;63803;53.120;8.764;2022-11-20T15:10:12;104.88;;;44.47;;
75048;SDS011;63803;53.120;8.764;2022-11-20T15:12:53;99.18;;;44.17;;
75048;SDS011;63803;53.120;8.764;2022-11-20T15:15:30;97.97;;;42.50;;
75048;SDS011;63803;53.120;8.764;2022-11-20T15:18:00;80.70;;;35.90;;
75048;SDS011;63803;53.120;8.764;2022-11-20T15:20:27;76.63;;;34.30;;
75048;SDS011;63803;53.120;8.764;2022-11-20T15:22:56;70.60;;;33.38;;
75048;SDS011;63803;53.120;8.764;2022-11-20T15:25:22;92.15;;;38.10;;
75048;SDS011;63803;53.120;8.764;2022-11-20T15:27:51;78.50;;;34.08;;
75048;SDS011;63803;53.120;8.764;2022-11-20T15:30:21;82.00;;;37.50;;
75048;SDS011;63803;53.120;8.764;2022-11-20T15:32:48;75.07;;;34.30;;
75048;SDS011;63803;53.120;8.764;2022-11-20T15:35:15;72.88;;;33.47;;
75048;SDS011;63803;53.120;8.764;2022-11-20T15:37:41;74.22;;;33.25;;
75048;SDS011;63803;53.120;8.764;2022-11-20T15:40:08;76.72;;;33.97;;
75048;SDS011;63803;53.120;8.764;2022-11-20T15:42:35;66.75;;;31.55;;
75048;SDS011;63803;53.120;8.764;2022-11-20T15:45:01;67.35;;;31.75;;
75048;SDS011;63803;53.120;8.764;2022-11-20T15:47:28;69.60;;;32.78;;
75048;SDS011;63803;53.120;8.764;2022-11-20T15:49:56;85.57;;;33.13;;
75048;SDS011;63803;53.120;8.764;2022-11-20T15:52:22;67.07;;;31.20;;
75048;SDS011;63803;53.120;8.764;2022-11-20T15:54:48;69.05;;;31.55;;
75048;SDS011;63803;53.120;8.764;2022-11-20T15:57:14;70.13;;;31.77;;
75048;SDS011;63803;53.120;8.764;2022-11-20T15:59:40;59.67;;;28.20;;
75048;SDS011;63803;53.120;8.764;2022-11-20T16:02:13;62.42;;;29.08;;
75048;SDS011;63803;53.120;8.764;2022-11-20T16:04:40;66.97;;;29.38;;
75048;SDS011;63803;53.120;8.764;2022-11-20T16:07:07;65.00;;;27.50;;
75048;SDS011;63803;53.120;8.764;2022-11-20T16:09:33;60.80;;;29.48;;
75048;SDS011;63803;53.120;8.764;2022-11-20T16:11:59;58.63;;;27.35;;
75048;SDS011;63803;53.120;8.764;2022-11-20T16:14:25;52.85;;;26.90;;
75048;SDS011;63803;53.120;8.764;2022-11-20T16:17:10;50.53;;;25.00;;
75048;SDS011;63803;53.120;8.764;2022-11-20T16:19:37;57.40;;;26.33;;
75048;SDS011;63803;53.120;8.764;2022-11-20T16:22:03;55.90;;;25.13;;
75048;SDS011;63803;53.120;8.764;2022-11-20T16:24:29;52.22;;;26.08;;
75048;SDS011;63803;53.120;8.764;2022-11-20T16:26:55;60.13;;;25.00;;
75048;SDS011;63803;53.120;8.764;2022-11-20T16:29:22;44.85;;;22.45;;
75048;SDS011;63803;53.120;8.764;2022-11-20T16:31:48;44.63;;;22.17;;
75048;SDS011;63803;53.120;8.764;2022-11-20T16:34:15;48.03;;;21.15;;